FR3 weather

CLOSED Bremner Airport
Edmonton, Alberta, Canada

Public forecast

Using degrees Celsius for public forecast. Weather courtesy of forecast.io.

METAR (pilot weather report)

Closest report is Edmonton (CFB Namao) Heliport, 9.9 nm (18.4 km) WNW. Retrieved 2019/07/23 19:00 UTC (44 minutes ago):

CYED 231900Z 08006KT 15SM FEW099 26/17 A3000 RMK AC1 DA4232FT SLP158

TAF (pilot weather forecast)

Closest forecast is Edmonton (CFB Namao) Heliport, 9.9 nm (18.4 km) WNW. Retrieved 2019/07/23 18:39 UTC (1 hour ago):

TAF TAF CYED 231736Z 2318/2406 08006KT P6SM FEW120 FM240200 03005KT P6SM BKN220 RMK NXT FCST BY 240000Z